createdAt,value
2023-03-06T00:02:12.407Z,99338.73
2023-03-06T00:04:41.335Z,99337.84
2023-03-06T00:07:36.793Z,99338.65
2023-03-06T00:10:34.902Z,99337.00
2023-03-06T00:13:07.618Z,99338.48
2023-03-06T00:16:06.663Z,99339.59
2023-03-06T00:19:03.596Z,99335.07
2023-03-06T00:21:32.633Z,99338.58
2023-03-06T00:24:27.465Z,99335.29
2023-03-06T00:26:54.164Z,99342.04
2023-03-06T00:29:24.182Z,99341.85
2023-03-06T00:31:52.315Z,99341.64
2023-03-06T00:34:20.634Z,99341.36
2023-03-06T00:37:16.789Z,99343.23
2023-03-06T00:39:46.341Z,99342.73
2023-03-06T00:42:18.491Z,99342.73
2023-03-06T00:44:49.473Z,99344.39
2023-03-06T00:47:20.579Z,99341.34
2023-03-06T00:49:58.040Z,99336.46
2023-03-06T00:52:29.500Z,99339.45
2023-03-06T00:55:05.649Z,99342.98
2023-03-06T00:58:07.937Z,99336.83
2023-03-06T01:00:36.869Z,99334.27
2023-03-06T01:03:08.077Z,99335.23
2023-03-06T01:05:39.213Z,99335.33
2023-03-06T01:08:10.146Z,99334.25
2023-03-06T01:10:40.722Z,99334.84
2023-03-06T01:13:10.585Z,99329.20
2023-03-06T01:15:42.257Z,99331.34
2023-03-06T01:18:23.203Z,99326.92
2023-03-06T01:23:56.823Z,99327.02
2023-03-06T01:26:46.986Z,99328.51
2023-03-06T01:29:17.642Z,99330.94
2023-03-06T01:32:11.876Z,99331.86
2023-03-06T01:34:55.976Z,99328.88
2023-03-06T01:37:32.341Z,99327.08
2023-03-06T01:40:09.279Z,99326.81
2023-03-06T01:42:39.654Z,99322.17
2023-03-06T01:45:54.842Z,99323.58
2023-03-06T01:51:20.473Z,99316.02
2023-03-06T01:53:52.327Z,99316.16
2023-03-06T01:56:23.398Z,99314.95
2023-03-06T01:58:54.207Z,99312.96
2023-03-06T02:01:27.706Z,99310.64
2023-03-06T02:04:00.423Z,99308.45
2023-03-06T02:06:44.452Z,99313.15
2023-03-06T02:09:48.655Z,99309.84
2023-03-06T02:12:20.747Z,99312.86
2023-03-06T02:14:51.490Z,99313.36
2023-03-06T02:17:26.495Z,99309.95
2023-03-06T02:20:22.931Z,99313.59
2023-03-06T02:23:32.298Z,99312.88
2023-03-06T02:29:02.469Z,99311.38
2023-03-06T02:31:55.986Z,99313.16
2023-03-06T02:34:23.230Z,99312.71
2023-03-06T02:37:10.146Z,99311.72
2023-03-06T02:39:40.792Z,99309.23
2023-03-06T02:42:09.242Z,99311.00
2023-03-06T02:44:37.342Z,99311.27
2023-03-06T02:47:13.329Z,99308.85
2023-03-06T02:49:48.838Z,99309.77
2023-03-06T02:52:17.105Z,99310.91
2023-03-06T02:54:47.330Z,99310.77
2023-03-06T02:57:23.496Z,99311.11
2023-03-06T02:59:57.807Z,99306.63
2023-03-06T03:02:31.209Z,99308.05
2023-03-06T03:05:05.732Z,99308.42
2023-03-06T03:08:02.064Z,99306.04
2023-03-06T03:10:32.793Z,99305.20
2023-03-06T03:13:26.153Z,99305.77
2023-03-06T03:16:05.867Z,99304.92
2023-03-06T03:19:14.884Z,99307.10
2023-03-06T03:21:52.942Z,99306.10
2023-03-06T03:24:50.364Z,99309.04
2023-03-06T03:27:23.128Z,99308.09
2023-03-06T03:29:56.630Z,99311.23
2023-03-06T03:32:27.261Z,99309.89
2023-03-06T03:34:58.907Z,99301.50
2023-03-06T03:37:39.431Z,99302.10
2023-03-06T03:40:15.807Z,99302.08
2023-03-06T03:43:01.908Z,99302.88
2023-03-06T03:45:37.234Z,99303.61
2023-03-06T03:48:15.560Z,99301.73
2023-03-06T03:50:45.042Z,99297.00
2023-03-06T03:53:21.447Z,99299.84
2023-03-06T03:55:55.730Z,99295.08
2023-03-06T03:58:27.297Z,99296.48
2023-03-06T04:00:57.275Z,99298.02
2023-03-06T04:03:34.239Z,99294.54
2023-03-06T04:06:04.937Z,99295.29
2023-03-06T04:08:33.086Z,99293.84
2023-03-06T04:11:04.089Z,99290.16
2023-03-06T04:13:32.120Z,99291.14
2023-03-06T04:16:05.627Z,99289.40
2023-03-06T04:18:36.020Z,99289.48
2023-03-06T04:21:33.642Z,99286.98
2023-03-06T04:24:03.451Z,99289.39
2023-03-06T04:26:33.546Z,99283.22
2023-03-06T04:29:05.036Z,99285.21
2023-03-06T04:31:35.660Z,99284.86
2023-03-06T04:34:14.543Z,99285.32
2023-03-06T04:36:48.058Z,99283.07
2023-03-06T04:39:18.977Z,99281.99
2023-03-06T04:41:54.014Z,99279.90
2023-03-06T04:44:35.444Z,99277.67
2023-03-06T04:47:09.728Z,99273.40
2023-03-06T04:50:07.025Z,99275.30
2023-03-06T04:52:39.594Z,99279.20
2023-03-06T04:55:17.193Z,99272.53
2023-03-06T04:57:59.275Z,99274.84
2023-03-06T05:00:32.350Z,99272.42
2023-03-06T05:03:04.031Z,99268.77
2023-03-06T05:05:35.896Z,99268.52
2023-03-06T05:08:09.452Z,99265.16
2023-03-06T05:10:37.407Z,99264.29
2023-03-06T05:13:10.964Z,99268.21
2023-03-06T05:15:42.525Z,99272.89
2023-03-06T05:18:14.217Z,99268.11
2023-03-06T05:21:08.113Z,99265.73
2023-03-06T05:23:45.605Z,99269.38
2023-03-06T05:26:23.589Z,99269.64
2023-03-06T05:28:55.882Z,99267.52
2023-03-06T05:31:24.526Z,99262.77
2023-03-06T05:34:18.990Z,99264.23
2023-03-06T05:36:49.714Z,99266.27
2023-03-06T05:39:21.491Z,99265.70
2023-03-06T05:41:50.743Z,99261.13
2023-03-06T05:44:20.883Z,99259.81
2023-03-06T05:46:50.564Z,99263.13
2023-03-06T05:49:24.028Z,99268.76
2023-03-06T05:51:57.816Z,99267.52
2023-03-06T05:55:01.752Z,99267.12
2023-03-06T05:57:32.243Z,99270.30
2023-03-06T06:01:53.741Z,99271.85
2023-03-06T06:07:18.432Z,99271.56
2023-03-06T06:09:48.065Z,99274.14
2023-03-06T06:12:14.725Z,99273.60
2023-03-06T06:14:53.625Z,99274.84
2023-03-06T06:17:30.586Z,99270.80
2023-03-06T06:20:03.801Z,99273.35
2023-03-06T06:22:37.082Z,99276.88
2023-03-06T06:25:20.095Z,99276.52
2023-03-06T06:28:17.353Z,99274.23
